JAX weather

Jacksonville International Airport
Jacksonville, Florida, United States

Public forecast

Using degrees Fahrenheit for public forecast. Weather courtesy of forecast.io.

METAR (pilot weather report)

Retrieved 2019/05/23 01:56 UTC (34 minutes ago):

KJAX 230156Z 10007KT 10SM FEW040 26/21 A3016 RMK AO2 SLP214 T02560211

TAF (pilot weather forecast)

Forecast is more than 12 hours old.

Retrieved 2019/05/22 00:22 UTC (1 day ago):

TAF KJAX 222320Z 2300/2324 11009KT 6SM FU FEW005 FM230400 VRB02KT P6SM SKC FM231400 10008KT P6SM FEW030 FM231800 08012KT P6SM SCT040